Time;durP1;ratioP1;P1;durP2;ratioP2;P2;SDS_P1;SDS_P2;PMS_P1;PMS_P2;Temp;Humidity;BMP_temperature;BMP_pressure;BME280_temperature;BME280_humidity;BME280_pressure;Samples;Min_cycle;Max_cycle;Signal;HPM_P1;HPM_P2
2021/10/25 00:00:52;;;;;;;8.35;4.90;;;23.00;56.60;;;;;;31990448;27;20047;-44
2021/10/25 00:15:55;;;;;;;7.18;4.50;;;23.30;56.70;;;;;;31936702;27;20043;-47
2021/10/25 00:30:57;;;;;;;7.10;4.20;;;23.40;57.50;;;;;;31625245;27;10000425;-44
2021/10/25 00:45:59;;;;;;;10.45;4.60;;;23.30;57.90;;;;;;31944520;27;20058;-42
2021/10/25 01:01:01;;;;;;;8.00;3.40;;;23.30;58.10;;;;;;31947771;27;20137;-42
2021/10/25 01:16:08;;;;;;;7.85;4.55;;;23.20;58.20;;;;;;31944555;27;20086;-43
2021/10/25 01:31:11;;;;;;;10.45;4.35;;;23.10;58.50;;;;;;31925473;27;20050;-49
2021/10/25 01:46:13;;;;;;;7.72;3.78;;;23.00;58.90;;;;;;31916010;27;20047;-45
2021/10/25 02:01:17;;;;;;;5.78;4.10;;;23.00;59.00;;;;;;31892277;27;20051;-48
2021/10/25 02:16:20;;;;;;;6.20;3.30;;;22.90;59.30;;;;;;31893748;27;20043;-46
2021/10/25 02:31:22;;;;;;;6.40;3.63;;;22.80;59.40;;;;;;31881712;27;20049;-44
2021/10/25 02:46:24;;;;;;;5.20;3.10;;;22.80;59.40;;;;;;31904511;27;20070;-45
2021/10/25 03:01:26;;;;;;;6.82;3.20;;;22.80;59.20;;;;;;31889938;27;20051;-46
2021/10/25 03:16:29;;;;;;;5.07;3.10;;;22.70;59.60;;;;;;31913200;27;20058;-48
2021/10/25 03:31:31;;;;;;;4.75;3.00;;;23.00;59.70;;;;;;31934986;27;20040;-54
2021/10/25 03:46:47;;;;;;;5.70;2.50;;;23.30;59.60;;;;;;31953706;27;20047;-44
2021/10/25 04:02:09;;;;;;;3.70;2.75;;;23.30;59.50;;;;;;31976387;27;20472;-44
2021/10/25 04:32:34;;;;;;;5.05;3.10;;;23.20;60.00;;;;;;31976669;27;20093;-48
2021/10/25 04:47:37;;;;;;;2.78;2.53;;;23.20;59.80;;;;;;31999269;27;20099;-52
2021/10/25 05:02:39;;;;;;;7.82;2.70;;;23.10;59.80;;;;;;31917695;27;20498;-43
2021/10/25 05:17:41;;;;;;;8.90;4.57;;;23.00;60.10;;;;;;31936371;27;20071;-53
2021/10/25 05:32:43;;;;;;;10.98;5.53;;;22.90;60.70;;;;;;31944367;27;20159;-54
2021/10/25 05:47:48;;;;;;;22.90;8.55;;;22.50;53.30;;;;;;31934399;27;20136;-50
2021/10/25 06:02:57;;;;;;;37.55;18.23;;;22.90;53.30;;;;;;31987312;27;20090;-49
2021/10/25 06:17:59;;;;;;;39.20;21.07;;;23.10;52.00;;;;;;31981046;27;20054;-47
2021/10/25 06:33:05;;;;;;;26.92;15.25;;;23.10;51.80;;;;;;31926028;27;20049;-48
2021/10/25 06:48:07;;;;;;;19.33;11.73;;;23.20;51.30;;;;;;31911926;27;20134;-49
2021/10/25 07:03:09;;;;;;;12.65;8.25;;;23.00;50.10;;;;;;31900874;27;20127;-51
2021/10/25 07:18:27;;;;;;;13.38;7.78;;;22.90;47.00;;;;;;31952311;27;20107;-49
2021/10/25 08:19:26;;;;;;;14.70;7.88;;;23.20;49.30;;;;;;31978848;27;20058;-54
2021/10/25 08:49:39;;;;;;;20.58;12.23;;;23.10;51.60;;;;;;31973208;27;20098;-46
2021/10/25 09:04:41;;;;;;;78.43;56.75;;;23.10;52.50;;;;;;31914638;27;20122;-44
2021/10/25 09:19:46;;;;;;;35.58;28.15;;;23.00;51.50;;;;;;31915833;27;20063;-45
2021/10/25 09:34:57;;;;;;;38.00;24.95;;;23.00;53.00;;;;;;31914917;27;20067;-49
2021/10/25 09:50:01;;;;;;;25.95;20.27;;;22.90;53.30;;;;;;31930758;27;20071;-52
2021/10/25 10:05:06;;;;;;;49.70;35.33;;;22.90;51.70;;;;;;31910802;27;20059;-48
2021/10/25 10:20:13;;;;;;;34.42;26.27;;;22.70;52.10;;;;;;31879752;27;20040;-50
2021/10/25 10:35:17;;;;;;;33.88;25.40;;;22.70;48.50;;;;;;31953280;27;20063;-45
2021/10/25 10:50:31;;;;;;;20.60;16.05;;;23.00;51.50;;;;;;31969074;27;20051;-43
2021/10/25 11:05:38;;;;;;;17.80;12.27;;;23.10;50.90;;;;;;31945295;27;20052;-42
2021/10/25 11:20:40;;;;;;;17.98;10.93;;;23.00;49.80;;;;;;31921452;27;20108;-47
2021/10/25 11:35:48;;;;;;;12.68;10.35;;;23.10;49.80;;;;;;31927053;28;20035;-44
2021/10/25 11:50:52;;;;;;;15.30;9.63;;;23.00;50.60;;;;;;31611310;27;10000251;-47
2021/10/25 12:05:55;;;;;;;22.52;13.07;;;23.00;51.20;;;;;;31975005;27;20086;-49
2021/10/25 12:21:07;;;;;;;70.82;55.60;;;22.90;51.80;;;;;;31916536;27;20039;-46
2021/10/25 12:36:18;;;;;;;54.60;44.28;;;22.80;52.70;;;;;;31958529;27;20039;-45
2021/10/25 12:51:23;;;;;;;58.30;45.28;;;22.90;52.50;;;;;;31936704;27;20123;-47
2021/10/25 13:06:32;;;;;;;51.65;39.22;;;23.10;52.80;;;;;;31898940;27;20079;-46
2021/10/25 13:21:34;;;;;;;38.70;33.77;;;23.30;52.80;;;;;;31985079;27;20086;-45
2021/10/25 13:36:36;;;;;;;41.05;30.58;;;23.30;53.00;;;;;;31894000;27;20488;-48
2021/10/25 13:51:44;;;;;;;35.60;30.00;;;23.20;53.20;;;;;;31977763;27;20035;-51
2021/10/25 14:06:46;;;;;;;29.30;25.02;;;23.10;53.60;;;;;;32011050;27;20059;-46
2021/10/25 14:21:52;;;;;;;27.73;24.80;;;23.00;53.90;;;;;;32010295;27;20058;-46
2021/10/25 14:37:00;;;;;;;26.48;23.23;;;22.90;54.10;;;;;;31950531;27;20093;-45
2021/10/25 15:07:25;;;;;;;25.75;18.98;;;22.90;54.20;;;;;;31926628;27;20059;-45
2021/10/25 15:22:28;;;;;;;21.48;16.65;;;23.30;53.90;;;;;;31946522;27;20040;-50
2021/10/25 15:37:31;;;;;;;19.95;15.75;;;23.30;54.10;;;;;;31601503;27;10000226;-50
2021/10/25 15:52:33;;;;;;;26.33;14.82;;;23.30;54.10;;;;;;31965557;28;20050;-48
2021/10/25 16:07:35;;;;;;;23.92;15.43;;;23.30;54.20;;;;;;31926864;28;20047;-49
2021/10/25 16:22:39;;;;;;;24.08;13.23;;;23.20;55.70;;;;;;31858559;28;20048;-52
2021/10/25 16:37:41;;;;;;;17.85;12.07;;;23.20;56.40;;;;;;31931863;27;20060;-57
2021/10/25 16:52:54;;;;;;;26.20;11.63;;;23.20;57.00;;;;;;31963726;27;20047;-58
2021/10/25 17:23:20;;;;;;;11.07;9.88;;;23.10;56.70;;;;;;31912826;27;20711;-51
2021/10/25 17:38:23;;;;;;;19.25;9.93;;;23.00;57.00;;;;;;31932544;27;20039;-46
2021/10/25 17:53:26;;;;;;;21.80;9.45;;;23.10;56.80;;;;;;31901173;27;20050;-49
2021/10/25 18:08:28;;;;;;;20.33;10.45;;;23.00;57.10;;;;;;31910318;27;20059;-48
2021/10/25 18:23:32;;;;;;;19.75;9.55;;;23.00;57.70;;;;;;31918022;27;20050;-47
2021/10/25 18:38:34;;;;;;;17.65;9.40;;;22.90;58.00;;;;;;31925556;27;20046;-48
2021/10/25 18:53:36;;;;;;;18.67;10.48;;;22.80;58.20;;;;;;31902310;27;20055;-45
2021/10/25 19:08:39;;;;;;;6.20;3.10;;;22.70;55.90;;;;;;31925038;27;20070;-60
2021/10/25 19:23:41;;;;;;;2.40;1.75;;;23.10;54.60;;;;;;31903937;27;20160;-47
2021/10/25 19:38:47;;;;;;;1.50;1.20;;;23.30;52.60;;;;;;31957290;28;20046;-47
2021/10/25 19:53:49;;;;;;;1.70;1.33;;;23.30;50.50;;;;;;31907104;28;20050;-52
2021/10/25 20:08:51;;;;;;;4.60;3.67;;;23.20;51.10;;;;;;31894295;27;20048;-53
2021/10/25 20:23:53;;;;;;;6.28;1.90;;;23.00;49.10;;;;;;31946071;27;20122;-47
2021/10/25 20:38:56;;;;;;;2.40;1.73;;;23.20;49.60;;;;;;31939755;27;20050;-46
2021/10/25 20:53:58;;;;;;;6.70;2.25;;;23.20;50.60;;;;;;32013339;27;20039;-55
2021/10/25 21:09:00;;;;;;;3.80;1.77;;;23.20;51.40;;;;;;31891056;28;20058;-49
2021/10/25 21:24:02;;;;;;;6.25;2.00;;;23.20;51.30;;;;;;31956919;27;20118;-47
2021/10/25 21:39:04;;;;;;;5.68;1.98;;;23.20;51.90;;;;;;32019981;27;20151;-48
2021/10/25 21:54:06;;;;;;;5.93;1.80;;;23.20;52.20;;;;;;32018720;27;20067;-53
2021/10/25 22:09:08;;;;;;;5.05;1.92;;;23.10;52.80;;;;;;32015867;27;20047;-49
2021/10/25 22:24:10;;;;;;;12.18;8.10;;;23.10;53.00;;;;;;31983089;27;20054;-48
2021/10/25 22:39:12;;;;;;;6.47;5.78;;;23.00;55.30;;;;;;31951779;27;20058;-44
2021/10/25 22:54:15;;;;;;;6.43;5.75;;;22.90;55.30;;;;;;31894528;27;20051;-45
2021/10/25 23:09:17;;;;;;;8.55;6.13;;;22.90;55.60;;;;;;31918730;27;20081;-53
2021/10/25 23:24:19;;;;;;;8.23;5.50;;;22.80;55.80;;;;;;31602746;27;10000904;-44
2021/10/25 23:39:22;;;;;;;5.90;5.07;;;23.00;57.00;;;;;;31928111;27;20118;-53
2021/10/25 23:54:24;;;;;;;5.43;4.85;;;23.40;56.70;;;;;;31908875;27;20085;-46
